Pagrindinis puslapis
METAR-TAF:

METAR-TAF

Oro uostai :

Kiutahija, Turkija

platuma: 39-06-41N, ilguma: 30-07-48E, Aukštis: 1013 m

METAR: trūkstamas

Laikas: 15:21 (12:21 UTC)

Prognozė

Ataskaita buvo paskelbta 1 valandą ir 41 minutes, ne 10:40 UTC
Prognozė galioja nuo 19 metu 12 UTC su 19 metu 21 UTC
Vėjas 12 kt iš Pietryčių
Matomumas 10 km arba daugiau
Su prošvaistėmis ne aukštis 3000 ft
Su prošvaistėmis ne aukštis 10000 ft
Laikinai
nuo 19 metu 12 UTC su 19 metu 15 UTC
Vėjas 15 kt iš Pietvakarių
lietus

TAF: LTBZ 191040Z 1912/1921 13012KT 9999 BKN030 BKN100 TEMPO 1912/1915 22015KT -SHRA

Orai ataskaitas ir orų prognozės (METAR, TAF).

turimą stotys yra geltonos ir raudonos taškus žemėlapyje.

Perkelti pele per norėdami pamatyti stoties vardą.

Tada spustelėkite, norėdami matyti oro stebėjimo ir prognozės.

Norėdami pakeisti žemėlapį: spustelėkite ant žalios mygtukų su juodo kryžiaus žemyn,; žalią mygtuką su brūkšneliu, jei norite nutolinti; arba žalių rodyklių gretimoms žemėlapius.


METAR-TAF: